Starkweather, North Dakota
Current Conditions -  °F | °C
As of 5:55 AM on Sunday 25 Jan 2015 (Local Time) from K9D7 Reporting Station
Overcast Overcast  
Wind Chill: -13°   Ceiling: 1400
Heat Index: -9°   Visibility: 10mi
Dew Point: -12°   Wind: 5mph
Humidity: 79%   Direction: 30°NNE
Pressure: 29.98"   Gusts: NA
Location:  48.45°N, 98.88°W
Report Text: K9D7 251155Z AUTO 03004KT 10SM OVC014 M09/M12 A2998 RMK AO2
Loading
Personal Weather Stations






























Interactive Weather Map New forecast layout! Learn more

10-Day Weather Forecast

Advertisements
Track Severe Weather on mobile